Terminal Aerodrome Forecast
Issued by NWS Omaha/Valley, NE

Home | Current Version | Previous Version | Text Only | Print | Product List | Glossary Off
Versions: 1 2 3 4 5 6 7 8 9 10 11 12 13 14 15 16 17 18 19 20 21 22 23

000
FTUS43 KOAX 271131
TAFOFK
TAF
KOFK 271131Z 2712/2812 18007KT P6SM FEW250
     FM271700 18015G23KT P6SM SCT200
     FM272300 15009KT P6SM BKN070
     FM280600 15007KT 4SM BR BKN025
     FM281000 26007KT 6SM BR BKN035=

USA.gov is the U.S. government's official web portal to all federal, state and local government web resources and services.